sensor_id;sensor_type;location;lat;lon;timestamp;P1;durP1;ratioP1;P2;durP2;ratioP2
22460;SDS011;11397;48.410;11.468;2022-09-09T00:01:47;6.40;;;6.20;;
22460;SDS011;11397;48.410;11.468;2022-09-09T00:06:53;5.93;;;5.72;;
22460;SDS011;11397;48.410;11.468;2022-09-09T00:11:58;6.20;;;6.00;;
22460;SDS011;11397;48.410;11.468;2022-09-09T00:17:04;6.82;;;6.63;;
22460;SDS011;11397;48.410;11.468;2022-09-09T00:22:14;5.97;;;5.78;;
22460;SDS011;11397;48.410;11.468;2022-09-09T00:27:18;5.65;;;5.45;;
22460;SDS011;11397;48.410;11.468;2022-09-09T00:32:20;6.18;;;5.97;;
22460;SDS011;11397;48.410;11.468;2022-09-09T00:37:24;6.38;;;6.18;;
22460;SDS011;11397;48.410;11.468;2022-09-09T00:42:29;6.55;;;6.35;;
22460;SDS011;11397;48.410;11.468;2022-09-09T00:47:38;6.18;;;5.97;;
22460;SDS011;11397;48.410;11.468;2022-09-09T00:52:43;6.03;;;5.82;;
22460;SDS011;11397;48.410;11.468;2022-09-09T00:57:49;6.38;;;6.18;;
22460;SDS011;11397;48.410;11.468;2022-09-09T01:02:53;6.15;;;5.95;;
22460;SDS011;11397;48.410;11.468;2022-09-09T01:08:00;5.88;;;5.68;;
22460;SDS011;11397;48.410;11.468;2022-09-09T01:13:02;6.35;;;6.15;;
22460;SDS011;11397;48.410;11.468;2022-09-09T01:18:07;6.60;;;6.40;;
22460;SDS011;11397;48.410;11.468;2022-09-09T01:23:16;6.28;;;6.07;;
22460;SDS011;11397;48.410;11.468;2022-09-09T01:28:36;6.85;;;6.65;;
22460;SDS011;11397;48.410;11.468;2022-09-09T01:33:43;6.32;;;6.13;;
22460;SDS011;11397;48.410;11.468;2022-09-09T01:38:45;6.50;;;6.30;;
22460;SDS011;11397;48.410;11.468;2022-09-09T01:43:48;6.47;;;6.28;;
22460;SDS011;11397;48.410;11.468;2022-09-09T01:48:51;6.43;;;6.22;;
22460;SDS011;11397;48.410;11.468;2022-09-09T01:53:57;6.63;;;6.43;;
22460;SDS011;11397;48.410;11.468;2022-09-09T01:59:09;6.10;;;5.90;;
22460;SDS011;11397;48.410;11.468;2022-09-09T02:04:18;6.38;;;6.18;;
22460;SDS011;11397;48.410;11.468;2022-09-09T02:09:25;6.72;;;6.53;;
22460;SDS011;11397;48.410;11.468;2022-09-09T02:14:31;6.82;;;6.63;;
22460;SDS011;11397;48.410;11.468;2022-09-09T02:19:36;6.55;;;6.35;;
22460;SDS011;11397;48.410;11.468;2022-09-09T02:24:57;7.20;;;7.00;;
22460;SDS011;11397;48.410;11.468;2022-09-09T02:30:04;6.75;;;6.55;;
22460;SDS011;11397;48.410;11.468;2022-09-09T02:35:12;6.70;;;6.50;;
22460;SDS011;11397;48.410;11.468;2022-09-09T02:40:15;6.63;;;6.43;;
22460;SDS011;11397;48.410;11.468;2022-09-09T02:45:24;6.30;;;6.10;;
22460;SDS011;11397;48.410;11.468;2022-09-09T02:50:29;6.75;;;6.55;;
22460;SDS011;11397;48.410;11.468;2022-09-09T02:55:37;6.63;;;6.43;;
22460;SDS011;11397;48.410;11.468;2022-09-09T03:00:42;6.88;;;6.68;;
22460;SDS011;11397;48.410;11.468;2022-09-09T03:05:45;6.90;;;6.70;;
22460;SDS011;11397;48.410;11.468;2022-09-09T03:10:47;6.45;;;6.25;;
22460;SDS011;11397;48.410;11.468;2022-09-09T03:15:51;6.97;;;6.78;;
22460;SDS011;11397;48.410;11.468;2022-09-09T03:20:54;6.43;;;6.22;;
22460;SDS011;11397;48.410;11.468;2022-09-09T03:25:56;6.53;;;6.32;;
22460;SDS011;11397;48.410;11.468;2022-09-09T03:31:10;6.47;;;6.28;;
22460;SDS011;11397;48.410;11.468;2022-09-09T03:36:14;7.35;;;7.07;;
22460;SDS011;11397;48.410;11.468;2022-09-09T03:41:16;6.95;;;6.75;;
22460;SDS011;11397;48.410;11.468;2022-09-09T03:46:20;6.70;;;6.50;;
22460;SDS011;11397;48.410;11.468;2022-09-09T03:51:22;6.80;;;6.60;;
22460;SDS011;11397;48.410;11.468;2022-09-09T03:56:24;6.82;;;6.63;;
22460;SDS011;11397;48.410;11.468;2022-09-09T04:01:28;6.35;;;6.15;;
22460;SDS011;11397;48.410;11.468;2022-09-09T04:06:30;7.20;;;6.97;;
22460;SDS011;11397;48.410;11.468;2022-09-09T04:11:32;7.13;;;6.93;;
22460;SDS011;11397;48.410;11.468;2022-09-09T04:16:35;7.13;;;6.93;;
22460;SDS011;11397;48.410;11.468;2022-09-09T04:21:38;6.90;;;6.70;;
22460;SDS011;11397;48.410;11.468;2022-09-09T04:26:41;6.93;;;6.72;;
22460;SDS011;11397;48.410;11.468;2022-09-09T04:31:44;6.90;;;6.70;;
22460;SDS011;11397;48.410;11.468;2022-09-09T04:36:46;6.72;;;6.53;;
22460;SDS011;11397;48.410;11.468;2022-09-09T04:41:48;6.95;;;6.75;;
22460;SDS011;11397;48.410;11.468;2022-09-09T04:46:51;6.80;;;6.60;;
22460;SDS011;11397;48.410;11.468;2022-09-09T04:51:54;6.85;;;6.65;;
22460;SDS011;11397;48.410;11.468;2022-09-09T04:56:56;7.47;;;7.18;;
22460;SDS011;11397;48.410;11.468;2022-09-09T05:02:00;7.65;;;7.35;;
22460;SDS011;11397;48.410;11.468;2022-09-09T05:07:03;7.15;;;6.93;;
22460;SDS011;11397;48.410;11.468;2022-09-09T05:12:05;7.20;;;6.97;;
22460;SDS011;11397;48.410;11.468;2022-09-09T05:17:11;7.05;;;6.85;;
22460;SDS011;11397;48.410;11.468;2022-09-09T05:22:17;6.95;;;6.75;;
22460;SDS011;11397;48.410;11.468;2022-09-09T05:27:21;7.50;;;7.20;;
22460;SDS011;11397;48.410;11.468;2022-09-09T05:32:25;7.65;;;7.35;;
22460;SDS011;11397;48.410;11.468;2022-09-09T05:37:28;7.47;;;7.18;;
22460;SDS011;11397;48.410;11.468;2022-09-09T05:42:30;6.93;;;6.72;;
22460;SDS011;11397;48.410;11.468;2022-09-09T05:47:35;7.30;;;7.05;;
22460;SDS011;11397;48.410;11.468;2022-09-09T05:52:39;7.70;;;7.40;;
22460;SDS011;11397;48.410;11.468;2022-09-09T05:57:41;7.70;;;7.40;;
22460;SDS011;11397;48.410;11.468;2022-09-09T06:02:49;7.13;;;6.93;;
22460;SDS011;11397;48.410;11.468;2022-09-09T06:07:52;6.53;;;6.32;;
22460;SDS011;11397;48.410;11.468;2022-09-09T06:12:54;6.72;;;6.53;;
22460;SDS011;11397;48.410;11.468;2022-09-09T06:17:57;7.30;;;7.10;;
22460;SDS011;11397;48.410;11.468;2022-09-09T06:22:59;6.88;;;6.68;;
22460;SDS011;11397;48.410;11.468;2022-09-09T06:28:01;6.65;;;6.45;;
22460;SDS011;11397;48.410;11.468;2022-09-09T06:33:05;6.90;;;6.70;;
22460;SDS011;11397;48.410;11.468;2022-09-09T06:38:08;7.22;;;7.00;;
22460;SDS011;11397;48.410;11.468;2022-09-09T06:43:11;7.18;;;6.95;;
22460;SDS011;11397;48.410;11.468;2022-09-09T06:48:20;7.47;;;7.18;;
22460;SDS011;11397;48.410;11.468;2022-09-09T06:53:23;7.32;;;7.05;;
22460;SDS011;11397;48.410;11.468;2022-09-09T06:58:26;6.57;;;6.38;;
22460;SDS011;11397;48.410;11.468;2022-09-09T07:03:31;7.50;;;7.20;;
22460;SDS011;11397;48.410;11.468;2022-09-09T07:08:35;6.72;;;6.53;;
22460;SDS011;11397;48.410;11.468;2022-09-09T07:13:37;6.93;;;6.72;;
22460;SDS011;11397;48.410;11.468;2022-09-09T07:18:41;7.05;;;6.85;;
22460;SDS011;11397;48.410;11.468;2022-09-09T07:23:43;7.40;;;7.10;;
22460;SDS011;11397;48.410;11.468;2022-09-09T07:28:46;6.63;;;6.43;;
22460;SDS011;11397;48.410;11.468;2022-09-09T07:33:49;7.15;;;6.95;;
22460;SDS011;11397;48.410;11.468;2022-09-09T07:38:52;7.00;;;6.80;;
22460;SDS011;11397;48.410;11.468;2022-09-09T07:43:54;6.90;;;6.70;;
22460;SDS011;11397;48.410;11.468;2022-09-09T07:48:58;7.10;;;6.90;;
22460;SDS011;11397;48.410;11.468;2022-09-09T07:54:04;7.53;;;7.22;;
22460;SDS011;11397;48.410;11.468;2022-09-09T07:59:07;7.18;;;6.97;;
22460;SDS011;11397;48.410;11.468;2022-09-09T08:04:13;6.90;;;6.70;;
22460;SDS011;11397;48.410;11.468;2022-09-09T08:09:17;7.13;;;6.93;;
22460;SDS011;11397;48.410;11.468;2022-09-09T08:14:22;6.90;;;6.70;;
22460;SDS011;11397;48.410;11.468;2022-09-09T08:19:26;6.88;;;6.68;;
22460;SDS011;11397;48.410;11.468;2022-09-09T08:24:29;6.63;;;6.43;;
22460;SDS011;11397;48.410;11.468;2022-09-09T08:29:31;6.75;;;6.55;;
22460;SDS011;11397;48.410;11.468;2022-09-09T08:34:34;6.65;;;6.45;;
22460;SDS011;11397;48.410;11.468;2022-09-09T08:39:41;6.25;;;6.05;;
22460;SDS011;11397;48.410;11.468;2022-09-09T08:44:50;6.38;;;6.18;;
22460;SDS011;11397;48.410;11.468;2022-09-09T08:50:05;6.57;;;6.38;;
22460;SDS011;11397;48.410;11.468;2022-09-09T08:55:13;5.97;;;5.78;;
22460;SDS011;11397;48.410;11.468;2022-09-09T09:00:18;5.88;;;5.68;;
22460;SDS011;11397;48.410;11.468;2022-09-09T09:05:27;5.80;;;5.60;;
22460;SDS011;11397;48.410;11.468;2022-09-09T09:10:44;5.72;;;5.53;;
22460;SDS011;11397;48.410;11.468;2022-09-09T09:15:53;6.10;;;5.90;;
22460;SDS011;11397;48.410;11.468;2022-09-09T09:21:00;5.60;;;5.40;;
22460;SDS011;11397;48.410;11.468;2022-09-09T09:26:06;5.70;;;5.50;;
22460;SDS011;11397;48.410;11.468;2022-09-09T09:31:12;5.25;;;5.05;;
22460;SDS011;11397;48.410;11.468;2022-09-09T09:36:19;5.45;;;5.25;;
22460;SDS011;11397;48.410;11.468;2022-09-09T09:41:29;5.32;;;5.13;;
22460;SDS011;11397;48.410;11.468;2022-09-09T09:46:31;5.25;;;5.05;;
22460;SDS011;11397;48.410;11.468;2022-09-09T09:51:43;5.72;;;5.53;;
22460;SDS011;11397;48.410;11.468;2022-09-09T09:56:45;5.57;;;5.38;;
22460;SDS011;11397;48.410;11.468;2022-09-09T10:01:48;5.65;;;5.45;;
22460;SDS011;11397;48.410;11.468;2022-09-09T10:06:51;5.90;;;5.70;;
22460;SDS011;11397;48.410;11.468;2022-09-09T10:11:55;5.60;;;5.40;;
22460;SDS011;11397;48.410;11.468;2022-09-09T10:17:02;5.80;;;5.60;;
22460;SDS011;11397;48.410;11.468;2022-09-09T10:22:10;4.93;;;4.80;;
22460;SDS011;11397;48.410;11.468;2022-09-09T10:27:15;5.70;;;5.50;;
22460;SDS011;11397;48.410;11.468;2022-09-09T10:32:32;5.40;;;5.20;;
22460;SDS011;11397;48.410;11.468;2022-09-09T10:37:41;5.30;;;5.10;;
22460;SDS011;11397;48.410;11.468;2022-09-09T10:42:44;5.28;;;5.07;;
22460;SDS011;11397;48.410;11.468;2022-09-09T10:47:53;5.60;;;5.40;;
22460;SDS011;11397;48.410;11.468;2022-09-09T10:53:00;5.53;;;5.32;;
22460;SDS011;11397;48.410;11.468;2022-09-09T10:58:03;4.55;;;4.45;;
22460;SDS011;11397;48.410;11.468;2022-09-09T11:03:06;4.90;;;4.80;;
22460;SDS011;11397;48.410;11.468;2022-09-09T11:08:14;4.95;;;4.82;;
22460;SDS011;11397;48.410;11.468;2022-09-09T11:13:19;4.78;;;4.68;;
22460;SDS011;11397;48.410;11.468;2022-09-09T11:18:22;4.53;;;4.43;;
22460;SDS011;11397;48.410;11.468;2022-09-09T11:23:27;4.78;;;4.68;;
22460;SDS011;11397;48.410;11.468;2022-09-09T11:28:36;5.68;;;5.47;;
22460;SDS011;11397;48.410;11.468;2022-09-09T11:33:57;5.68;;;5.47;;
22460;SDS011;11397;48.410;11.468;2022-09-09T11:39:06;5.53;;;5.32;;
22460;SDS011;11397;48.410;11.468;2022-09-09T11:44:09;5.18;;;4.97;;
22460;SDS011;11397;48.410;11.468;2022-09-09T11:49:25;4.85;;;4.75;;
22460;SDS011;11397;48.410;11.468;2022-09-09T11:54:30;7.03;;;6.83;;
22460;SDS011;11397;48.410;11.468;2022-09-09T11:59:32;6.18;;;5.97;;
22460;SDS011;11397;48.410;11.468;2022-09-09T12:04:35;5.45;;;5.25;;
22460;SDS011;11397;48.410;11.468;2022-09-09T12:09:47;5.40;;;5.20;;
22460;SDS011;11397;48.410;11.468;2022-09-09T12:15:00;6.03;;;5.82;;
22460;SDS011;11397;48.410;11.468;2022-09-09T12:20:09;5.85;;;5.65;;
22460;SDS011;11397;48.410;11.468;2022-09-09T12:25:18;5.72;;;5.53;;
22460;SDS011;11397;48.410;11.468;2022-09-09T12:30:22;6.18;;;5.97;;
22460;SDS011;11397;48.410;11.468;2022-09-09T12:35:30;6.00;;;5.80;;
22460;SDS011;11397;48.410;11.468;2022-09-09T12:40:34;6.03;;;5.82;;
22460;SDS011;11397;48.410;11.468;2022-09-09T12:45:36;5.72;;;5.53;;
22460;SDS011;11397;48.410;11.468;2022-09-09T12:50:43;6.05;;;5.85;;
22460;SDS011;11397;48.410;11.468;2022-09-09T12:55:50;5.47;;;5.28;;
22460;SDS011;11397;48.410;11.468;2022-09-09T13:00:53;6.10;;;5.90;;
22460;SDS011;11397;48.410;11.468;2022-09-09T13:05:57;5.72;;;5.53;;
22460;SDS011;11397;48.410;11.468;2022-09-09T13:11:02;5.78;;;5.57;;
22460;SDS011;11397;48.410;11.468;2022-09-09T13:16:06;5.65;;;5.45;;
22460;SDS011;11397;48.410;11.468;2022-09-09T13:21:10;6.47;;;6.28;;
22460;SDS011;11397;48.410;11.468;2022-09-09T13:26:21;6.45;;;6.25;;
22460;SDS011;11397;48.410;11.468;2022-09-09T13:31:27;5.55;;;5.35;;
22460;SDS011;11397;48.410;11.468;2022-09-09T13:36:29;6.75;;;6.55;;
22460;SDS011;11397;48.410;11.468;2022-09-09T13:41:33;6.18;;;5.97;;
22460;SDS011;11397;48.410;11.468;2022-09-09T13:46:36;6.38;;;6.18;;
22460;SDS011;11397;48.410;11.468;2022-09-09T13:51:39;6.57;;;6.38;;
22460;SDS011;11397;48.410;11.468;2022-09-09T13:56:43;6.07;;;5.88;;
22460;SDS011;11397;48.410;11.468;2022-09-09T14:01:45;6.38;;;6.18;;
22460;SDS011;11397;48.410;11.468;2022-09-09T14:06:47;6.67;;;6.47;;
22460;SDS011;11397;48.410;11.468;2022-09-09T14:11:51;5.80;;;5.60;;
22460;SDS011;11397;48.410;11.468;2022-09-09T14:16:52;6.18;;;5.97;;
22460;SDS011;11397;48.410;11.468;2022-09-09T14:21:54;5.80;;;5.60;;
22460;SDS011;11397;48.410;11.468;2022-09-09T14:26:58;5.63;;;5.43;;
22460;SDS011;11397;48.410;11.468;2022-09-09T14:31:59;6.30;;;6.10;;
22460;SDS011;11397;48.410;11.468;2022-09-09T14:37:02;5.75;;;5.55;;
22460;SDS011;11397;48.410;11.468;2022-09-09T14:42:05;5.75;;;5.55;;
22460;SDS011;11397;48.410;11.468;2022-09-09T14:47:07;5.88;;;5.68;;
22460;SDS011;11397;48.410;11.468;2022-09-09T14:52:09;6.18;;;5.97;;
22460;SDS011;11397;48.410;11.468;2022-09-09T14:57:12;5.80;;;5.60;;
22460;SDS011;11397;48.410;11.468;2022-09-09T15:02:14;5.68;;;5.47;;
22460;SDS011;11397;48.410;11.468;2022-09-09T15:07:16;5.28;;;5.07;;
22460;SDS011;11397;48.410;11.468;2022-09-09T15:12:20;6.00;;;5.80;;
22460;SDS011;11397;48.410;11.468;2022-09-09T15:17:22;5.65;;;5.45;;
22460;SDS011;11397;48.410;11.468;2022-09-09T15:22:27;5.18;;;4.97;;
22460;SDS011;11397;48.410;11.468;2022-09-09T15:27:30;5.95;;;5.75;;
22460;SDS011;11397;48.410;11.468;2022-09-09T15:32:32;6.22;;;6.03;;
22460;SDS011;11397;48.410;11.468;2022-09-09T15:37:34;6.07;;;5.88;;
22460;SDS011;11397;48.410;11.468;2022-09-09T15:42:37;5.07;;;4.90;;
22460;SDS011;11397;48.410;11.468;2022-09-09T15:47:39;5.55;;;5.35;;
22460;SDS011;11397;48.410;11.468;2022-09-09T15:52:40;4.40;;;4.30;;
22460;SDS011;11397;48.410;11.468;2022-09-09T15:57:43;5.55;;;5.35;;
22460;SDS011;11397;48.410;11.468;2022-09-09T16:02:45;4.72;;;4.63;;
22460;SDS011;11397;48.410;11.468;2022-09-09T16:07:47;4.95;;;4.80;;
22460;SDS011;11397;48.410;11.468;2022-09-09T16:12:50;4.72;;;4.63;;
22460;SDS011;11397;48.410;11.468;2022-09-09T16:17:53;5.57;;;5.38;;
22460;SDS011;11397;48.410;11.468;2022-09-09T16:22:54;5.35;;;5.15;;
22460;SDS011;11397;48.410;11.468;2022-09-09T16:27:58;5.45;;;5.25;;
22460;SDS011;11397;48.410;11.468;2022-09-09T16:33:00;5.80;;;5.60;;
22460;SDS011;11397;48.410;11.468;2022-09-09T16:38:02;5.30;;;5.10;;
22460;SDS011;11397;48.410;11.468;2022-09-09T16:43:05;4.93;;;4.80;;
22460;SDS011;11397;48.410;11.468;2022-09-09T16:48:07;5.80;;;5.60;;
22460;SDS011;11397;48.410;11.468;2022-09-09T16:53:08;5.55;;;5.35;;
22460;SDS011;11397;48.410;11.468;2022-09-09T16:58:12;5.57;;;5.38;;
22460;SDS011;11397;48.410;11.468;2022-09-09T17:03:14;5.50;;;5.30;;
22460;SDS011;11397;48.410;11.468;2022-09-09T17:08:16;5.82;;;5.63;;
22460;SDS011;11397;48.410;11.468;2022-09-09T17:13:19;5.95;;;5.75;;
22460;SDS011;11397;48.410;11.468;2022-09-09T17:18:21;5.43;;;5.22;;
22460;SDS011;11397;48.410;11.468;2022-09-09T17:23:22;5.20;;;5.00;;
22460;SDS011;11397;48.410;11.468;2022-09-09T17:28:25;5.65;;;5.45;;
22460;SDS011;11397;48.410;11.468;2022-09-09T17:33:31;5.40;;;5.20;;
22460;SDS011;11397;48.410;11.468;2022-09-09T17:38:33;5.18;;;4.97;;
22460;SDS011;11397;48.410;11.468;2022-09-09T17:43:36;6.10;;;5.90;;
22460;SDS011;11397;48.410;11.468;2022-09-09T17:48:38;5.13;;;4.93;;
22460;SDS011;11397;48.410;11.468;2022-09-09T17:53:41;5.07;;;4.90;;
22460;SDS011;11397;48.410;11.468;2022-09-09T17:58:44;5.25;;;5.05;;
22460;SDS011;11397;48.410;11.468;2022-09-09T18:03:45;5.63;;;5.43;;
22460;SDS011;11397;48.410;11.468;2022-09-09T18:08:48;5.78;;;5.57;;
22460;SDS011;11397;48.410;11.468;2022-09-09T18:13:52;5.45;;;5.25;;
22460;SDS011;11397;48.410;11.468;2022-09-09T18:18:57;5.20;;;5.00;;
22460;SDS011;11397;48.410;11.468;2022-09-09T18:23:58;5.70;;;5.50;;
22460;SDS011;11397;48.410;11.468;2022-09-09T18:29:03;5.35;;;5.15;;
22460;SDS011;11397;48.410;11.468;2022-09-09T18:34:05;5.97;;;5.78;;
22460;SDS011;11397;48.410;11.468;2022-09-09T18:39:07;5.35;;;5.15;;
22460;SDS011;11397;48.410;11.468;2022-09-09T18:44:11;6.28;;;6.07;;
22460;SDS011;11397;48.410;11.468;2022-09-09T18:49:13;6.50;;;6.30;;
22460;SDS011;11397;48.410;11.468;2022-09-09T18:54:16;6.70;;;6.50;;
22460;SDS011;11397;48.410;11.468;2022-09-09T18:59:20;5.85;;;5.65;;
22460;SDS011;11397;48.410;11.468;2022-09-09T19:04:23;5.88;;;5.68;;
22460;SDS011;11397;48.410;11.468;2022-09-09T19:09:26;5.75;;;5.55;;
22460;SDS011;11397;48.410;11.468;2022-09-09T19:14:31;6.75;;;6.55;;
22460;SDS011;11397;48.410;11.468;2022-09-09T19:19:33;5.93;;;5.72;;
22460;SDS011;11397;48.410;11.468;2022-09-09T19:24:34;5.97;;;5.78;;
22460;SDS011;11397;48.410;11.468;2022-09-09T19:29:38;6.18;;;5.97;;
22460;SDS011;11397;48.410;11.468;2022-09-09T19:34:41;5.35;;;5.15;;
22460;SDS011;11397;48.410;11.468;2022-09-09T19:39:43;6.13;;;5.93;;
22460;SDS011;11397;48.410;11.468;2022-09-09T19:44:46;6.03;;;5.82;;
22460;SDS011;11397;48.410;11.468;2022-09-09T19:49:49;5.15;;;4.95;;
22460;SDS011;11397;48.410;11.468;2022-09-09T19:54:51;6.35;;;6.15;;
22460;SDS011;11397;48.410;11.468;2022-09-09T19:59:54;6.28;;;6.07;;
22460;SDS011;11397;48.410;11.468;2022-09-09T20:04:56;5.70;;;5.50;;
22460;SDS011;11397;48.410;11.468;2022-09-09T20:09:58;6.68;;;6.47;;
22460;SDS011;11397;48.410;11.468;2022-09-09T20:15:01;6.28;;;6.07;;
22460;SDS011;11397;48.410;11.468;2022-09-09T20:20:03;6.32;;;6.13;;
22460;SDS011;11397;48.410;11.468;2022-09-09T20:25:05;6.47;;;6.28;;
22460;SDS011;11397;48.410;11.468;2022-09-09T20:30:11;6.32;;;6.13;;
22460;SDS011;11397;48.410;11.468;2022-09-09T20:35:14;6.82;;;6.63;;
22460;SDS011;11397;48.410;11.468;2022-09-09T20:40:15;6.15;;;5.95;;
22460;SDS011;11397;48.410;11.468;2022-09-09T20:45:19;6.97;;;6.78;;
22460;SDS011;11397;48.410;11.468;2022-09-09T20:50:21;6.28;;;6.07;;
22460;SDS011;11397;48.410;11.468;2022-09-09T20:55:22;6.18;;;5.97;;
22460;SDS011;11397;48.410;11.468;2022-09-09T21:00:27;6.15;;;5.95;;
22460;SDS011;11397;48.410;11.468;2022-09-09T21:05:29;6.28;;;6.07;;
22460;SDS011;11397;48.410;11.468;2022-09-09T21:10:33;6.90;;;6.70;;
22460;SDS011;11397;48.410;11.468;2022-09-09T21:15:36;5.97;;;5.78;;
22460;SDS011;11397;48.410;11.468;2022-09-09T21:20:38;6.35;;;6.15;;
22460;SDS011;11397;48.410;11.468;2022-09-09T21:25:42;6.28;;;6.07;;
22460;SDS011;11397;48.410;11.468;2022-09-09T21:30:47;6.50;;;6.30;;
22460;SDS011;11397;48.410;11.468;2022-09-09T21:35:50;6.35;;;6.15;;
22460;SDS011;11397;48.410;11.468;2022-09-09T21:40:51;6.45;;;6.25;;
22460;SDS011;11397;48.410;11.468;2022-09-09T21:45:54;6.32;;;6.13;;
22460;SDS011;11397;48.410;11.468;2022-09-09T21:51:00;7.25;;;7.05;;
22460;SDS011;11397;48.410;11.468;2022-09-09T21:56:03;5.82;;;5.63;;
22460;SDS011;11397;48.410;11.468;2022-09-09T22:01:08;6.55;;;6.35;;
22460;SDS011;11397;48.410;11.468;2022-09-09T22:06:11;6.90;;;6.70;;
22460;SDS011;11397;48.410;11.468;2022-09-09T22:11:13;6.95;;;6.75;;
22460;SDS011;11397;48.410;11.468;2022-09-09T22:16:17;7.13;;;6.93;;
22460;SDS011;11397;48.410;11.468;2022-09-09T22:21:19;6.85;;;6.65;;
22460;SDS011;11397;48.410;11.468;2022-09-09T22:26:21;6.50;;;6.30;;
22460;SDS011;11397;48.410;11.468;2022-09-09T22:31:24;6.43;;;6.22;;
22460;SDS011;11397;48.410;11.468;2022-09-09T22:36:26;6.65;;;6.45;;
22460;SDS011;11397;48.410;11.468;2022-09-09T22:41:27;6.65;;;6.45;;
22460;SDS011;11397;48.410;11.468;2022-09-09T22:46:32;6.38;;;6.18;;
22460;SDS011;11397;48.410;11.468;2022-09-09T22:51:34;6.25;;;6.05;;
22460;SDS011;11397;48.410;11.468;2022-09-09T22:56:35;6.78;;;6.57;;
22460;SDS011;11397;48.410;11.468;2022-09-09T23:01:38;7.38;;;7.10;;
22460;SDS011;11397;48.410;11.468;2022-09-09T23:06:39;6.80;;;6.60;;
22460;SDS011;11397;48.410;11.468;2022-09-09T23:11:42;7.25;;;7.03;;
22460;SDS011;11397;48.410;11.468;2022-09-09T23:16:46;6.13;;;5.93;;
22460;SDS011;11397;48.410;11.468;2022-09-09T23:21:51;6.72;;;6.53;;
22460;SDS011;11397;48.410;11.468;2022-09-09T23:26:53;6.65;;;6.45;;
22460;SDS011;11397;48.410;11.468;2022-09-09T23:31:56;6.97;;;6.78;;
22460;SDS011;11397;48.410;11.468;2022-09-09T23:36:57;6.85;;;6.65;;
22460;SDS011;11397;48.410;11.468;2022-09-09T23:41:59;6.85;;;6.65;;
22460;SDS011;11397;48.410;11.468;2022-09-09T23:47:02;6.60;;;6.40;;
22460;SDS011;11397;48.410;11.468;2022-09-09T23:52:04;6.65;;;6.45;;
22460;SDS011;11397;48.410;11.468;2022-09-09T23:57:06;6.50;;;6.30;;
